Řízení letového provozu České republiky
Letiste: LKPR Aktualizace: 30.06.2016 10:08:14  UTC
 METAR LKPR 30.06. 10:00 ...
METAR LKPR 301000Z 25012KT 230V320 9999 SCT036 24/16 Q1015 NOSIG RMK REG QNH 1012=
 TAF LKPR 30.06. 05:00 ...
TAF LKPR 300500Z 3006/0112 VRB02KT CAVOK      BECMG 3006/3007 22008KT 9999 SCT040      TEMPO 3008/3020 9000 SHRA SCT030TCU      PROB40 TEMPO 3010/3018 32020G40KT 2000 TSRA SCT020CB=